createdAt,value
2019-05-13T00:01:00.162Z,42.20
2019-05-13T00:03:28.229Z,43.30
2019-05-13T00:05:56.408Z,43.30
2019-05-13T00:08:25.022Z,44.00
2019-05-13T00:10:54.179Z,44.00
2019-05-13T00:13:23.704Z,44.60
2019-05-13T00:15:51.772Z,44.50
2019-05-13T00:18:19.638Z,45.80
2019-05-13T00:20:47.490Z,45.60
2019-05-13T00:23:15.396Z,45.70
2019-05-13T00:25:44.406Z,46.00
2019-05-13T00:28:14.484Z,46.90
2019-05-13T00:30:44.459Z,47.30
2019-05-13T00:33:13.921Z,47.70
2019-05-13T00:35:44.326Z,48.00
2019-05-13T00:38:14.152Z,46.80
2019-05-13T00:40:44.101Z,48.90
2019-05-13T00:43:14.052Z,47.30
2019-05-13T00:45:44.297Z,48.40
2019-05-13T00:48:14.267Z,49.30
2019-05-13T00:50:44.350Z,48.50
2019-05-13T00:53:13.375Z,49.60
2019-05-13T00:55:44.231Z,48.60
2019-05-13T00:58:14.071Z,48.80
2019-05-13T01:00:44.341Z,49.40
2019-05-13T01:03:14.088Z,48.00
2019-05-13T01:05:44.469Z,48.20
2019-05-13T01:08:14.503Z,48.20
2019-05-13T01:10:44.889Z,46.90
2019-05-13T01:13:13.655Z,47.40
2019-05-13T01:15:44.091Z,46.30
2019-05-13T01:18:14.027Z,46.90
2019-05-13T01:20:43.085Z,48.40
2019-05-13T01:23:13.524Z,47.70
2019-05-13T01:25:44.290Z,49.90
2019-05-13T01:28:13.506Z,49.10
2019-05-13T01:30:43.819Z,49.40
2019-05-13T01:33:14.210Z,53.40
2019-05-13T01:35:44.322Z,51.40
2019-05-13T01:38:13.473Z,58.10
2019-05-13T01:40:43.870Z,59.30
2019-05-13T01:43:14.134Z,58.30
2019-05-13T01:45:43.946Z,56.70
2019-05-13T01:48:13.872Z,59.40
2019-05-13T01:50:41.261Z,59.00
2019-05-13T01:53:09.112Z,59.10
2019-05-13T01:55:36.979Z,59.10
2019-05-13T01:58:04.963Z,61.50
2019-05-13T02:00:35.225Z,60.90
2019-05-13T02:03:03.866Z,61.20
2019-05-13T02:05:33.909Z,61.10
2019-05-13T02:08:04.239Z,63.20
2019-05-13T02:10:54.399Z,64.10
2019-05-13T02:13:24.348Z,63.80
2019-05-13T02:15:55.266Z,64.70
2019-05-13T02:18:24.477Z,65.90
2019-05-13T02:20:55.348Z,62.00
2019-05-13T02:23:23.787Z,63.10
2019-05-13T02:25:54.191Z,61.60
2019-05-13T02:28:24.743Z,61.20
2019-05-13T02:30:55.784Z,60.70
2019-05-13T02:33:23.164Z,62.20
2019-05-13T02:35:53.106Z,62.70
2019-05-13T02:38:28.307Z,61.10
2019-05-13T02:40:52.620Z,61.90
2019-05-13T02:43:23.138Z,61.10
2019-05-13T02:45:53.112Z,60.80
2019-05-13T02:48:23.424Z,60.80
2019-05-13T02:50:52.858Z,60.20
2019-05-13T02:53:23.223Z,59.00
2019-05-13T02:55:52.261Z,60.10
2019-05-13T02:58:24.400Z,61.30
2019-05-13T03:00:53.445Z,61.90
2019-05-13T03:03:23.090Z,60.40
2019-05-13T03:05:52.686Z,61.10
2019-05-13T03:08:38.498Z,61.20
2019-05-13T03:10:52.714Z,60.90
2019-05-13T03:13:22.949Z,60.70
2019-05-13T03:16:13.140Z,60.40
2019-05-13T03:18:43.520Z,60.80
2019-05-13T03:21:12.927Z,60.00
2019-05-13T03:23:44.083Z,60.60
2019-05-13T03:26:13.134Z,60.50
2019-05-13T03:28:43.555Z,58.70
2019-05-13T03:31:17.136Z,57.40
2019-05-13T03:33:46.698Z,56.50
2019-05-13T03:36:16.505Z,56.80
2019-05-13T03:38:59.910Z,54.90
2019-05-13T03:41:12.291Z,55.30
2019-05-13T03:43:43.157Z,54.90
2019-05-13T03:46:12.727Z,55.30
2019-05-13T03:48:42.868Z,53.20
2019-05-13T03:51:13.226Z,51.50
2019-05-13T03:53:43.171Z,53.20
2019-05-13T03:56:12.840Z,51.50
2019-05-13T03:58:43.320Z,54.80
2019-05-13T04:01:12.959Z,58.60
2019-05-13T04:03:43.844Z,60.60
2019-05-13T04:06:13.518Z,59.90
2019-05-13T04:08:43.456Z,60.00
2019-05-13T04:11:12.608Z,60.60
2019-05-13T04:13:42.899Z,55.70
2019-05-13T04:16:12.732Z,56.40
2019-05-13T04:18:42.561Z,51.00
2019-05-13T04:21:13.135Z,51.20
2019-05-13T04:23:42.537Z,49.30
2019-05-13T04:26:14.492Z,47.00
2019-05-13T04:28:43.458Z,46.40
2019-05-13T04:31:14.184Z,46.10
2019-05-13T04:33:42.627Z,48.00
2019-05-13T04:36:13.367Z,44.20
2019-05-13T04:38:43.704Z,44.20
2019-05-13T04:41:11.991Z,44.20
2019-05-13T04:43:43.627Z,45.00
2019-05-13T04:46:13.612Z,44.60
2019-05-13T04:48:43.895Z,44.20
2019-05-13T04:51:13.218Z,44.20
2019-05-13T04:53:42.351Z,45.50
2019-05-13T04:56:09.472Z,46.80
2019-05-13T04:58:37.822Z,46.90
2019-05-13T05:02:04.968Z,50.60
2019-05-13T05:04:55.910Z,55.00
2019-05-13T05:07:54.667Z,51.40
2019-05-13T05:11:24.231Z,50.60
2019-05-13T05:14:48.952Z,51.70
2019-05-13T05:18:22.277Z,49.10
2019-05-13T05:21:11.914Z,49.50
2019-05-13T05:24:34.519Z,46.60
2019-05-13T05:27:32.213Z,46.10
2019-05-13T05:30:52.000Z,48.40
2019-05-13T05:34:27.027Z,44.60
2019-05-13T05:37:35.975Z,42.10
2019-05-13T05:40:06.915Z,37.70
2019-05-13T05:42:36.855Z,26.00
2019-05-13T05:45:05.968Z,22.60
2019-05-13T05:47:37.021Z,19.70
2019-05-13T05:50:06.941Z,20.10
2019-05-13T05:52:36.344Z,19.50
2019-05-13T05:55:04.841Z,19.30
2019-05-13T05:57:38.985Z,18.80
2019-05-13T06:00:07.696Z,18.40
2019-05-13T06:02:42.508Z,18.10
2019-05-13T06:05:11.917Z,18.20
2019-05-13T06:07:42.176Z,17.30
2019-05-13T06:10:11.452Z,17.70
2019-05-13T06:12:42.293Z,17.30
2019-05-13T06:15:12.335Z,15.50
2019-05-13T06:17:41.281Z,16.90
2019-05-13T06:20:13.207Z,16.70
2019-05-13T06:22:42.387Z,16.70
2019-05-13T06:25:14.152Z,17.00
2019-05-13T06:27:42.102Z,15.70
2019-05-13T06:30:12.404Z,16.10
2019-05-13T06:32:41.853Z,16.60
2019-05-13T06:35:11.475Z,16.20
2019-05-13T06:37:41.502Z,15.10
2019-05-13T06:40:09.305Z,16.50
2019-05-13T06:42:37.257Z,16.30
2019-05-13T06:45:05.381Z,16.60
2019-05-13T06:47:36.175Z,16.60
2019-05-13T06:50:03.806Z,14.40
2019-05-13T06:52:32.102Z,15.80
2019-05-13T06:55:02.788Z,16.20
2019-05-13T06:57:32.258Z,16.40
2019-05-13T07:00:01.625Z,16.70
2019-05-13T07:02:32.031Z,15.90
2019-05-13T07:05:02.083Z,16.40
2019-05-13T07:07:31.726Z,16.60
2019-05-13T07:10:02.581Z,13.90
2019-05-13T07:12:31.277Z,15.90
2019-05-13T07:15:02.240Z,16.50
2019-05-13T07:17:32.195Z,19.70
2019-05-13T07:20:02.086Z,17.90
2019-05-13T07:22:31.934Z,18.30
2019-05-13T07:24:58.950Z,19.30
2019-05-13T07:27:31.647Z,19.90
2019-05-13T07:29:58.904Z,20.80
2019-05-13T07:32:26.718Z,22.00
2019-05-13T07:34:55.136Z,21.70
2019-05-13T07:37:23.510Z,24.40
2019-05-13T07:39:53.135Z,23.10
2019-05-13T07:42:22.164Z,23.50
2019-05-13T07:44:52.165Z,24.60
2019-05-13T07:47:22.364Z,22.60
2019-05-13T07:49:51.484Z,22.00
2019-05-13T07:52:22.504Z,21.30
2019-05-13T07:54:51.904Z,22.00
2019-05-13T07:57:21.487Z,23.20
2019-05-13T07:59:52.240Z,21.50
2019-05-13T08:02:21.729Z,21.40
2019-05-13T08:04:52.882Z,24.20
2019-05-13T08:07:19.406Z,22.50
2019-05-13T08:09:47.334Z,21.10
2019-05-13T08:12:15.425Z,21.30
2019-05-13T08:14:43.817Z,20.00
2019-05-13T08:17:11.809Z,19.90
2019-05-13T08:19:41.387Z,19.80
2019-05-13T08:22:09.446Z,20.20
2019-05-13T08:24:37.340Z,20.70
2019-05-13T08:27:05.227Z,21.10
2019-05-13T08:29:33.821Z,21.70
2019-05-13T08:32:02.773Z,18.90
2019-05-13T08:34:32.959Z,18.00
2019-05-13T08:37:02.780Z,17.40
2019-05-13T08:39:33.318Z,18.90
2019-05-13T08:42:12.873Z,20.00
2019-05-13T08:44:32.202Z,18.60
2019-05-13T08:47:03.204Z,18.80
2019-05-13T08:49:32.304Z,17.50
2019-05-13T08:52:01.567Z,17.50
2019-05-13T08:54:32.407Z,17.60
2019-05-13T08:57:02.500Z,16.20
2019-05-13T08:59:31.750Z,17.00
2019-05-13T09:02:02.590Z,17.30
2019-05-13T09:04:31.552Z,16.80
2019-05-13T09:07:02.100Z,16.10
2019-05-13T09:09:31.416Z,15.50
2019-05-13T09:12:02.556Z,17.70
2019-05-13T09:14:32.333Z,16.40
2019-05-13T09:17:01.800Z,16.10
2019-05-13T09:19:32.259Z,15.70
2019-05-13T09:22:02.954Z,16.50
2019-05-13T09:24:36.624Z,15.90
2019-05-13T09:27:01.913Z,13.70
2019-05-13T09:29:31.909Z,15.10
2019-05-13T09:31:59.233Z,15.50
2019-05-13T09:34:27.119Z,15.60
2019-05-13T09:36:55.042Z,14.90
2019-05-13T09:39:23.203Z,14.80
2019-05-13T09:41:52.184Z,13.80
2019-05-13T09:44:21.769Z,14.40
2019-05-13T09:46:51.641Z,13.60
2019-05-13T09:49:23.408Z,13.10
2019-05-13T09:51:52.126Z,13.20
2019-05-13T09:54:22.117Z,13.50
2019-05-13T09:56:51.810Z,13.50
2019-05-13T09:59:21.978Z,12.80
2019-05-13T10:01:51.802Z,13.70
2019-05-13T10:04:21.989Z,14.60
2019-05-13T10:06:49.569Z,13.10
2019-05-13T10:09:17.540Z,12.90
2019-05-13T10:11:45.395Z,13.00
2019-05-13T10:14:13.372Z,12.50
2019-05-13T10:16:42.648Z,11.90
2019-05-13T10:19:12.686Z,11.70
2019-05-13T10:21:42.053Z,12.00
2019-05-13T10:24:12.554Z,12.90
2019-05-13T10:26:42.933Z,12.80
2019-05-13T10:29:11.887Z,12.70
2019-05-13T10:31:42.058Z,12.70
2019-05-13T10:34:13.631Z,12.90
2019-05-13T10:36:42.072Z,13.30
2019-05-13T10:39:11.890Z,11.30
2019-05-13T10:41:42.292Z,11.60
2019-05-13T10:44:12.097Z,11.40
2019-05-13T10:46:42.062Z,11.10
2019-05-13T10:49:12.203Z,12.60
2019-05-13T10:51:41.844Z,12.60
2019-05-13T10:54:10.042Z,12.80
2019-05-13T10:56:38.120Z,12.30
2019-05-13T10:59:06.196Z,12.40
2019-05-13T11:01:34.072Z,13.40
2019-05-13T11:04:02.612Z,12.60
2019-05-13T11:06:32.516Z,12.00
2019-05-13T11:09:02.064Z,12.30
2019-05-13T11:11:32.955Z,12.20
2019-05-13T11:14:10.045Z,13.00
2019-05-13T11:16:29.908Z,12.00
2019-05-13T11:18:57.762Z,12.60
2019-05-13T11:21:25.922Z,12.60
2019-05-13T11:23:53.924Z,11.80
2019-05-13T11:26:22.282Z,12.60
2019-05-13T11:28:52.136Z,13.10
2019-05-13T11:31:22.457Z,11.50
2019-05-13T11:33:52.018Z,12.60
2019-05-13T11:36:23.273Z,12.70
2019-05-13T11:38:53.045Z,12.80
2019-05-13T11:41:22.809Z,13.40
2019-05-13T11:44:11.081Z,13.40
2019-05-13T11:46:22.470Z,13.00
2019-05-13T11:48:52.041Z,12.90
2019-05-13T11:51:23.793Z,13.50
2019-05-13T11:53:50.577Z,13.50
2019-05-13T11:56:22.743Z,13.20
2019-05-13T11:58:53.292Z,12.70
2019-05-13T12:01:22.943Z,12.90
2019-05-13T12:03:53.125Z,13.00
2019-05-13T12:06:23.258Z,14.00
2019-05-13T12:08:55.032Z,14.30
2019-05-13T12:11:22.326Z,13.00
2019-05-13T12:13:52.916Z,13.00
2019-05-13T12:16:22.651Z,14.10
2019-05-13T12:18:52.523Z,13.90
2019-05-13T12:21:20.624Z,14.40
2019-05-13T12:23:48.652Z,12.80
2019-05-13T12:26:16.700Z,13.30
2019-05-13T12:28:44.837Z,13.80
2019-05-13T12:31:12.748Z,13.80
2019-05-13T12:33:44.089Z,13.10
2019-05-13T12:36:17.326Z,14.20
2019-05-13T12:38:44.253Z,12.30
2019-05-13T12:41:12.791Z,13.20
2019-05-13T12:43:42.554Z,12.80
2019-05-13T12:46:12.534Z,12.20
2019-05-13T12:48:40.285Z,12.90
2019-05-13T12:51:08.249Z,14.30
2019-05-13T12:53:36.624Z,13.50
2019-05-13T12:56:04.675Z,12.80
2019-05-13T12:58:33.891Z,12.70
2019-05-13T13:01:02.456Z,12.70
2019-05-13T13:03:32.280Z,13.00
2019-05-13T13:06:22.732Z,13.30
2019-05-13T13:08:42.997Z,12.90
2019-05-13T13:11:00.229Z,12.40
2019-05-13T13:13:54.175Z,12.60
2019-05-13T13:15:58.150Z,13.10
2019-05-13T13:18:26.116Z,13.10
2019-05-13T13:21:00.868Z,12.70
2019-05-13T13:23:24.303Z,12.20
2019-05-13T13:25:56.747Z,12.70
2019-05-13T13:28:23.929Z,13.30
2019-05-13T13:30:53.091Z,11.90
2019-05-13T13:33:21.370Z,11.00
2019-05-13T13:35:58.608Z,11.20
2019-05-13T13:38:24.403Z,11.70
2019-05-13T13:40:53.459Z,12.30
2019-05-13T13:43:23.535Z,11.90
2019-05-13T13:46:07.279Z,12.50
2019-05-13T13:48:24.930Z,11.60
2019-05-13T13:50:55.122Z,11.90
2019-05-13T13:53:19.018Z,12.10
2019-05-13T13:55:48.861Z,11.90
2019-05-13T13:58:16.825Z,11.90
2019-05-13T14:01:00.864Z,11.60
2019-05-13T14:03:15.871Z,11.50
2019-05-13T14:05:43.811Z,11.60
2019-05-13T14:08:12.565Z,10.40
2019-05-13T14:10:41.974Z,11.50
2019-05-13T14:13:12.528Z,11.10
2019-05-13T14:15:41.790Z,11.40
2019-05-13T14:18:11.403Z,11.60
2019-05-13T14:20:42.613Z,11.30
2019-05-13T14:23:12.443Z,11.50
2019-05-13T14:25:42.065Z,11.40
2019-05-13T14:39:32.086Z,10.90
2019-05-13T14:42:02.241Z,11.20
2019-05-13T14:55:46.129Z,10.30
2019-05-13T14:58:14.125Z,10.20
2019-05-13T15:00:42.374Z,10.60
2019-05-13T15:03:13.075Z,10.70
2019-05-13T15:05:42.983Z,10.10
2019-05-13T15:08:11.702Z,10.30
2019-05-13T15:10:41.956Z,10.80
2019-05-13T15:13:09.891Z,10.90
2019-05-13T15:15:38.042Z,10.40
2019-05-13T15:18:07.441Z,10.10
2019-05-13T15:20:35.858Z,10.00
2019-05-13T15:23:03.914Z,9.70
2019-05-13T15:25:32.403Z,10.40
2019-05-13T15:28:02.895Z,9.60
2019-05-13T15:30:31.680Z,9.90
2019-05-13T15:33:01.805Z,10.70
2019-05-13T15:35:31.946Z,10.20
2019-05-13T15:38:01.379Z,9.40
2019-05-13T15:40:31.214Z,9.90
2019-05-13T15:42:59.450Z,9.50
2019-05-13T15:45:27.543Z,8.70
2019-05-13T15:47:55.598Z,9.90
2019-05-13T15:50:23.726Z,9.40
2019-05-13T15:52:51.659Z,9.30
2019-05-13T15:55:21.380Z,9.20
2019-05-13T15:57:51.666Z,8.90
2019-05-13T16:00:21.798Z,9.50
2019-05-13T16:02:49.365Z,9.40
2019-05-13T16:05:17.420Z,8.70
2019-05-13T16:07:45.546Z,9.00
2019-05-13T16:10:14.893Z,9.40
2019-05-13T16:12:43.828Z,9.50
2019-05-13T16:15:15.687Z,8.80
2019-05-13T16:17:45.009Z,8.90
2019-05-13T16:20:13.244Z,8.40
2019-05-13T16:22:42.004Z,8.60
2019-05-13T16:25:11.328Z,8.10
2019-05-13T16:27:41.552Z,8.70
2019-05-13T16:30:11.808Z,8.10
2019-05-13T16:32:42.273Z,7.90
2019-05-13T16:35:10.300Z,9.10
2019-05-13T16:37:38.582Z,8.10
2019-05-13T16:40:07.261Z,8.50
2019-05-13T16:42:35.438Z,8.40
2019-05-13T16:45:03.617Z,8.60
2019-05-13T16:47:31.950Z,8.30
2019-05-13T16:50:02.613Z,8.50
2019-05-13T16:52:31.254Z,8.50
2019-05-13T16:55:02.355Z,8.00
2019-05-13T16:57:31.659Z,8.10
2019-05-13T17:00:02.238Z,8.30
2019-05-13T17:02:29.873Z,8.40
2019-05-13T17:04:57.994Z,8.40
2019-05-13T17:07:26.130Z,8.80
2019-05-13T17:09:54.132Z,8.50
2019-05-13T17:12:22.856Z,8.90
2019-05-13T17:14:52.365Z,8.90
2019-05-13T17:17:20.496Z,8.70
2019-05-13T17:19:53.129Z,8.50
2019-05-13T17:22:18.926Z,8.90
2019-05-13T17:24:47.205Z,8.50
2019-05-13T17:27:15.422Z,9.00
2019-05-13T17:29:43.918Z,9.10
2019-05-13T17:32:12.196Z,8.90
2019-05-13T17:34:43.628Z,9.00
2019-05-13T17:37:11.774Z,9.10
2019-05-13T17:39:41.528Z,9.00
2019-05-13T17:42:11.952Z,8.70
2019-05-13T17:44:45.900Z,9.20
2019-05-13T17:47:11.654Z,8.90
2019-05-13T17:49:41.825Z,8.80
2019-05-13T17:52:11.508Z,8.90
2019-05-13T17:54:42.609Z,8.90
2019-05-13T17:57:12.304Z,9.20
2019-05-13T17:59:41.819Z,9.00
2019-05-13T18:02:11.861Z,9.30
2019-05-13T18:04:41.505Z,9.10
2019-05-13T18:07:11.985Z,9.30
2019-05-13T18:09:42.190Z,9.20
2019-05-13T18:12:11.529Z,9.50
2019-05-13T18:14:41.206Z,9.30
2019-05-13T18:17:09.519Z,9.30
2019-05-13T18:19:37.892Z,9.40
2019-05-13T18:22:06.196Z,9.60
2019-05-13T18:24:34.241Z,9.60
2019-05-13T18:27:02.299Z,9.60
2019-05-13T18:29:31.597Z,9.70
2019-05-13T18:32:02.036Z,9.80
2019-05-13T18:34:32.059Z,10.00
2019-05-13T18:37:02.199Z,9.90
2019-05-13T18:39:32.242Z,9.80
2019-05-13T18:42:00.386Z,10.20
2019-05-13T18:44:28.433Z,10.20
2019-05-13T18:46:56.513Z,10.50
2019-05-13T18:49:24.647Z,10.40
2019-05-13T18:51:52.722Z,10.80
2019-05-13T18:54:20.915Z,11.20
2019-05-13T18:56:49.275Z,11.20
2019-05-13T18:59:17.369Z,10.90
2019-05-13T19:01:45.402Z,10.80
2019-05-13T19:04:13.474Z,10.70
2019-05-13T19:06:44.488Z,11.40
2019-05-13T19:09:12.626Z,10.60
2019-05-13T19:11:42.676Z,11.50
2019-05-13T19:14:12.319Z,11.80
2019-05-13T19:16:42.204Z,12.30
2019-05-13T19:19:13.264Z,12.00
2019-05-13T19:21:41.628Z,12.40
2019-05-13T19:24:13.391Z,12.40
2019-05-13T19:26:41.740Z,11.70
2019-05-13T19:29:11.583Z,11.90
2019-05-13T19:31:41.777Z,11.70
2019-05-13T19:34:12.166Z,11.40
2019-05-13T19:36:40.075Z,11.40
2019-05-13T19:39:08.028Z,11.60
2019-05-13T19:41:36.020Z,11.70
2019-05-13T19:44:04.361Z,11.90
2019-05-13T19:46:32.318Z,11.70
2019-05-13T19:49:01.571Z,11.90
2019-05-13T19:51:32.281Z,11.90
2019-05-13T19:54:01.208Z,12.30
2019-05-13T19:56:31.762Z,13.10
2019-05-13T19:59:01.553Z,14.50
2019-05-13T20:01:32.017Z,14.80
2019-05-13T20:04:02.146Z,16.00
2019-05-13T20:06:31.843Z,17.20
2019-05-13T20:09:01.464Z,16.80
2019-05-13T20:11:29.310Z,17.70
2019-05-13T20:13:57.299Z,18.20
2019-05-13T20:16:25.209Z,19.00
2019-05-13T20:18:53.472Z,19.10
2019-05-13T20:21:21.371Z,20.20
2019-05-13T20:23:51.750Z,20.90
2019-05-13T20:26:21.696Z,20.90
2019-05-13T20:28:51.324Z,21.70
2019-05-13T20:31:21.554Z,21.80
2019-05-13T20:33:51.573Z,24.00
2019-05-13T20:36:19.293Z,24.70
2019-05-13T20:38:47.309Z,25.20
2019-05-13T20:41:15.676Z,25.20
2019-05-13T20:43:43.614Z,25.50
2019-05-13T20:46:12.069Z,25.80
2019-05-13T20:48:41.206Z,26.80
2019-05-13T20:51:11.340Z,27.20
2019-05-13T20:53:41.199Z,28.20
2019-05-13T20:56:09.583Z,27.60
2019-05-13T20:58:37.488Z,28.20
2019-05-13T21:01:06.011Z,29.20
2019-05-13T21:03:33.987Z,30.10
2019-05-13T21:06:02.259Z,26.60
2019-05-13T21:08:32.157Z,32.60
2019-05-13T21:11:02.270Z,31.60
2019-05-13T21:13:31.803Z,23.90
2019-05-13T21:16:02.196Z,29.70
2019-05-13T21:18:31.598Z,29.70
2019-05-13T21:20:59.778Z,32.10
2019-05-13T21:23:27.817Z,36.80
2019-05-13T21:25:55.779Z,34.70
2019-05-13T21:28:23.661Z,37.10
2019-05-13T21:30:52.094Z,36.20
2019-05-13T21:33:22.158Z,34.00
2019-05-13T21:35:51.153Z,32.20
2019-05-13T21:38:21.942Z,36.20
2019-05-13T21:40:52.061Z,34.30
2019-05-13T21:43:21.552Z,34.60
2019-05-13T21:45:52.105Z,34.00
2019-05-13T21:48:21.755Z,35.00
2019-05-13T21:50:51.595Z,35.40
2019-05-13T21:53:21.730Z,36.10
2019-05-13T21:55:52.034Z,28.30
2019-05-13T21:58:22.233Z,32.00
2019-05-13T22:00:52.030Z,33.50
2019-05-13T22:03:20.239Z,33.20
2019-05-13T22:05:48.255Z,34.60
2019-05-13T22:08:16.358Z,34.50
2019-05-13T22:10:44.862Z,35.20
2019-05-13T22:13:12.871Z,38.90
2019-05-13T22:15:41.582Z,32.70
2019-05-13T22:18:11.292Z,31.70
2019-05-13T22:20:49.837Z,33.90
2019-05-13T22:23:11.958Z,31.90
2019-05-13T22:25:43.362Z,31.00
2019-05-13T22:28:11.807Z,30.50
2019-05-13T22:30:41.218Z,31.80
2019-05-13T22:33:09.344Z,34.30
2019-05-13T22:35:37.338Z,31.90
2019-05-13T22:38:05.344Z,33.20
2019-05-13T22:40:33.583Z,31.80
2019-05-13T22:43:01.640Z,31.90
2019-05-13T22:45:31.281Z,34.30
2019-05-13T22:47:59.725Z,37.40
2019-05-13T22:50:27.713Z,39.30
2019-05-13T22:52:56.026Z,39.30
2019-05-13T22:55:23.922Z,37.90
2019-05-13T22:57:52.009Z,37.70
2019-05-13T23:00:22.265Z,39.80
2019-05-13T23:02:52.320Z,40.90
2019-05-13T23:05:21.779Z,43.70
2019-05-13T23:07:51.436Z,43.20
2019-05-13T23:10:19.595Z,41.20
2019-05-13T23:12:51.493Z,43.00
2019-05-13T23:15:21.159Z,42.50
2019-05-13T23:17:48.984Z,42.40
2019-05-13T23:20:17.376Z,41.60
2019-05-13T23:22:45.744Z,43.90
2019-05-13T23:25:13.732Z,43.80
2019-05-13T23:27:41.766Z,43.60
2019-05-13T23:30:11.706Z,43.70
2019-05-13T23:32:40.028Z,44.60
2019-05-13T23:35:08.174Z,42.20
2019-05-13T23:37:36.036Z,46.30
2019-05-13T23:40:04.644Z,45.20
2019-05-13T23:42:32.506Z,44.50
2019-05-13T23:45:00.403Z,45.10
2019-05-13T23:47:31.025Z,47.90
2019-05-13T23:49:58.621Z,48.20
2019-05-13T23:52:26.481Z,46.90
2019-05-13T23:54:54.432Z,50.10
2019-05-13T23:57:22.419Z,49.80
2019-05-13T23:59:51.186Z,49.00
